sensor_id;sensor_type;location;lat;lon;timestamp;temperature;humidity
13409;DHT22;6775;49.574;11.170;2022-07-24T00:01:16;18.00;99.90
13409;DHT22;6775;49.574;11.170;2022-07-24T00:03:46;17.90;99.90
13409;DHT22;6775;49.574;11.170;2022-07-24T00:06:14;17.90;99.90
13409;DHT22;6775;49.574;11.170;2022-07-24T00:08:42;17.90;99.90
13409;DHT22;6775;49.574;11.170;2022-07-24T00:11:11;17.90;99.90
13409;DHT22;6775;49.574;11.170;2022-07-24T00:13:39;17.90;99.90
13409;DHT22;6775;49.574;11.170;2022-07-24T00:16:07;17.90;99.90
13409;DHT22;6775;49.574;11.170;2022-07-24T00:18:36;17.90;99.90
13409;DHT22;6775;49.574;11.170;2022-07-24T00:21:06;17.90;99.90
13409;DHT22;6775;49.574;11.170;2022-07-24T00:23:33;17.90;99.90
13409;DHT22;6775;49.574;11.170;2022-07-24T00:26:01;17.90;99.90
13409;DHT22;6775;49.574;11.170;2022-07-24T00:28:29;17.90;99.90
13409;DHT22;6775;49.574;11.170;2022-07-24T00:30:57;17.80;99.90
13409;DHT22;6775;49.574;11.170;2022-07-24T00:33:25;17.80;99.90
13409;DHT22;6775;49.574;11.170;2022-07-24T00:35:53;17.70;99.90
13409;DHT22;6775;49.574;11.170;2022-07-24T00:38:23;17.70;99.90
13409;DHT22;6775;49.574;11.170;2022-07-24T00:40:51;17.70;99.90
13409;DHT22;6775;49.574;11.170;2022-07-24T00:43:19;17.70;99.90
13409;DHT22;6775;49.574;11.170;2022-07-24T00:45:47;17.70;99.90
13409;DHT22;6775;49.574;11.170;2022-07-24T00:48:16;17.70;99.90
13409;DHT22;6775;49.574;11.170;2022-07-24T00:50:46;17.70;99.90
13409;DHT22;6775;49.574;11.170;2022-07-24T00:53:15;17.70;99.90
13409;DHT22;6775;49.574;11.170;2022-07-24T00:55:44;17.70;99.90
13409;DHT22;6775;49.574;11.170;2022-07-24T00:58:12;17.70;99.90
13409;DHT22;6775;49.574;11.170;2022-07-24T01:00:40;17.70;99.90
13409;DHT22;6775;49.574;11.170;2022-07-24T01:03:08;17.60;99.90
13409;DHT22;6775;49.574;11.170;2022-07-24T01:05:35;17.60;99.90
13409;DHT22;6775;49.574;11.170;2022-07-24T01:08:04;17.60;99.90
13409;DHT22;6775;49.574;11.170;2022-07-24T01:10:32;17.60;99.90
13409;DHT22;6775;49.574;11.170;2022-07-24T01:13:02;17.70;99.90
13409;DHT22;6775;49.574;11.170;2022-07-24T01:15:30;17.60;99.90
13409;DHT22;6775;49.574;11.170;2022-07-24T01:17:58;17.60;99.90
13409;DHT22;6775;49.574;11.170;2022-07-24T01:20:26;17.50;99.90
13409;DHT22;6775;49.574;11.170;2022-07-24T01:22:55;17.40;99.90
13409;DHT22;6775;49.574;11.170;2022-07-24T01:25:23;17.30;99.90
13409;DHT22;6775;49.574;11.170;2022-07-24T01:27:51;17.20;99.90
13409;DHT22;6775;49.574;11.170;2022-07-24T01:30:19;17.10;99.90
13409;DHT22;6775;49.574;11.170;2022-07-24T01:32:47;17.10;99.90
13409;DHT22;6775;49.574;11.170;2022-07-24T01:35:14;17.10;99.90
13409;DHT22;6775;49.574;11.170;2022-07-24T01:37:49;17.10;99.90
13409;DHT22;6775;49.574;11.170;2022-07-24T01:40:20;17.10;99.90
13409;DHT22;6775;49.574;11.170;2022-07-24T01:42:48;17.10;99.90
13409;DHT22;6775;49.574;11.170;2022-07-24T01:45:16;17.00;99.90
13409;DHT22;6775;49.574;11.170;2022-07-24T01:47:44;17.20;99.90
13409;DHT22;6775;49.574;11.170;2022-07-24T01:50:13;17.20;99.90
13409;DHT22;6775;49.574;11.170;2022-07-24T01:52:41;17.20;99.90
13409;DHT22;6775;49.574;11.170;2022-07-24T01:55:10;17.20;99.90
13409;DHT22;6775;49.574;11.170;2022-07-24T01:57:40;17.30;99.90
13409;DHT22;6775;49.574;11.170;2022-07-24T02:00:09;17.40;99.90
13409;DHT22;6775;49.574;11.170;2022-07-24T02:02:41;17.40;99.90
13409;DHT22;6775;49.574;11.170;2022-07-24T02:05:10;17.40;99.90
13409;DHT22;6775;49.574;11.170;2022-07-24T02:07:40;17.40;99.90
13409;DHT22;6775;49.574;11.170;2022-07-24T02:10:09;17.40;99.90
13409;DHT22;6775;49.574;11.170;2022-07-24T02:12:38;17.30;99.90
13409;DHT22;6775;49.574;11.170;2022-07-24T02:15:09;17.30;99.90
13409;DHT22;6775;49.574;11.170;2022-07-24T02:17:37;17.30;99.90
13409;DHT22;6775;49.574;11.170;2022-07-24T02:20:06;17.30;99.90
13409;DHT22;6775;49.574;11.170;2022-07-24T02:22:36;17.30;99.90
13409;DHT22;6775;49.574;11.170;2022-07-24T02:25:04;17.40;99.90
13409;DHT22;6775;49.574;11.170;2022-07-24T02:27:33;17.40;99.90
13409;DHT22;6775;49.574;11.170;2022-07-24T02:30:01;17.40;99.90
13409;DHT22;6775;49.574;11.170;2022-07-24T02:32:30;17.40;99.90
13409;DHT22;6775;49.574;11.170;2022-07-24T02:34:58;17.30;99.90
13409;DHT22;6775;49.574;11.170;2022-07-24T02:37:34;17.30;99.90
13409;DHT22;6775;49.574;11.170;2022-07-24T02:40:04;17.20;99.90
13409;DHT22;6775;49.574;11.170;2022-07-24T02:42:32;17.00;99.90
13409;DHT22;6775;49.574;11.170;2022-07-24T02:45:00;16.90;99.90
13409;DHT22;6775;49.574;11.170;2022-07-24T02:47:29;16.90;99.90
13409;DHT22;6775;49.574;11.170;2022-07-24T02:49:57;16.80;99.90
13409;DHT22;6775;49.574;11.170;2022-07-24T02:52:25;16.80;99.90
13409;DHT22;6775;49.574;11.170;2022-07-24T02:54:53;16.80;99.90
13409;DHT22;6775;49.574;11.170;2022-07-24T02:57:21;16.80;99.90
13409;DHT22;6775;49.574;11.170;2022-07-24T02:59:49;16.80;99.90
13409;DHT22;6775;49.574;11.170;2022-07-24T03:02:19;16.70;99.90
13409;DHT22;6775;49.574;11.170;2022-07-24T03:04:48;16.70;99.90
13409;DHT22;6775;49.574;11.170;2022-07-24T03:07:16;16.70;99.90
13409;DHT22;6775;49.574;11.170;2022-07-24T03:09:44;16.60;99.90
13409;DHT22;6775;49.574;11.170;2022-07-24T03:12:12;16.50;99.90
13409;DHT22;6775;49.574;11.170;2022-07-24T03:14:40;16.40;99.90
13409;DHT22;6775;49.574;11.170;2022-07-24T03:17:08;16.50;99.90
13409;DHT22;6775;49.574;11.170;2022-07-24T03:19:36;16.60;99.90
13409;DHT22;6775;49.574;11.170;2022-07-24T03:22:05;16.70;99.90
13409;DHT22;6775;49.574;11.170;2022-07-24T03:24:33;16.70;99.90
13409;DHT22;6775;49.574;11.170;2022-07-24T03:27:01;16.60;99.90
13409;DHT22;6775;49.574;11.170;2022-07-24T03:29:29;16.60;99.90
13409;DHT22;6775;49.574;11.170;2022-07-24T03:31:57;16.50;99.90
13409;DHT22;6775;49.574;11.170;2022-07-24T03:34:25;16.50;99.90
13409;DHT22;6775;49.574;11.170;2022-07-24T03:36:53;16.40;99.90
13409;DHT22;6775;49.574;11.170;2022-07-24T03:39:23;16.40;99.90
13409;DHT22;6775;49.574;11.170;2022-07-24T03:41:51;16.40;99.90
13409;DHT22;6775;49.574;11.170;2022-07-24T03:44:19;16.40;99.90
13409;DHT22;6775;49.574;11.170;2022-07-24T03:46:47;16.30;99.90
13409;DHT22;6775;49.574;11.170;2022-07-24T03:49:15;16.30;99.90
13409;DHT22;6775;49.574;11.170;2022-07-24T03:51:45;16.30;99.90
13409;DHT22;6775;49.574;11.170;2022-07-24T03:54:13;16.30;99.90
13409;DHT22;6775;49.574;11.170;2022-07-24T03:56:43;16.30;99.90
13409;DHT22;6775;49.574;11.170;2022-07-24T03:59:11;16.20;99.90
13409;DHT22;6775;49.574;11.170;2022-07-24T04:01:38;16.20;99.90
13409;DHT22;6775;49.574;11.170;2022-07-24T04:04:06;16.10;99.90
13409;DHT22;6775;49.574;11.170;2022-07-24T04:06:34;16.00;99.90
13409;DHT22;6775;49.574;11.170;2022-07-24T04:09:04;16.00;99.90
13409;DHT22;6775;49.574;11.170;2022-07-24T04:11:33;16.00;99.90
13409;DHT22;6775;49.574;11.170;2022-07-24T04:14:02;16.10;99.90
13409;DHT22;6775;49.574;11.170;2022-07-24T04:16:30;16.20;99.90
13409;DHT22;6775;49.574;11.170;2022-07-24T04:18:59;16.20;99.90
13409;DHT22;6775;49.574;11.170;2022-07-24T04:21:32;16.30;99.90
13409;DHT22;6775;49.574;11.170;2022-07-24T04:24:00;16.30;99.90
13409;DHT22;6775;49.574;11.170;2022-07-24T04:26:28;16.30;99.90
13409;DHT22;6775;49.574;11.170;2022-07-24T04:28:56;16.30;99.90
13409;DHT22;6775;49.574;11.170;2022-07-24T04:31:25;16.40;99.90
13409;DHT22;6775;49.574;11.170;2022-07-24T04:33:54;16.40;99.90
13409;DHT22;6775;49.574;11.170;2022-07-24T04:36:22;16.40;99.90
13409;DHT22;6775;49.574;11.170;2022-07-24T04:38:50;16.50;99.90
13409;DHT22;6775;49.574;11.170;2022-07-24T04:41:18;16.40;99.90
13409;DHT22;6775;49.574;11.170;2022-07-24T04:43:46;16.50;99.90
13409;DHT22;6775;49.574;11.170;2022-07-24T04:46:15;16.40;99.90
13409;DHT22;6775;49.574;11.170;2022-07-24T04:48:44;16.50;99.90
13409;DHT22;6775;49.574;11.170;2022-07-24T04:51:13;16.60;99.90
13409;DHT22;6775;49.574;11.170;2022-07-24T04:53:40;16.60;99.90
13409;DHT22;6775;49.574;11.170;2022-07-24T04:56:08;16.70;99.90
13409;DHT22;6775;49.574;11.170;2022-07-24T04:58:36;16.80;99.90
13409;DHT22;6775;49.574;11.170;2022-07-24T05:01:04;16.80;99.90
13409;DHT22;6775;49.574;11.170;2022-07-24T05:03:32;16.90;99.90
13409;DHT22;6775;49.574;11.170;2022-07-24T05:06:02;17.00;99.90
13409;DHT22;6775;49.574;11.170;2022-07-24T05:08:30;17.10;99.90
13409;DHT22;6775;49.574;11.170;2022-07-24T05:10:58;17.20;99.90
13409;DHT22;6775;49.574;11.170;2022-07-24T05:13:26;17.30;99.90
13409;DHT22;6775;49.574;11.170;2022-07-24T05:15:54;17.40;99.90
13409;DHT22;6775;49.574;11.170;2022-07-24T05:18:23;17.50;99.90
13409;DHT22;6775;49.574;11.170;2022-07-24T05:20:50;17.60;99.90
13409;DHT22;6775;49.574;11.170;2022-07-24T05:23:20;17.80;99.90
13409;DHT22;6775;49.574;11.170;2022-07-24T05:25:48;18.00;99.90
13409;DHT22;6775;49.574;11.170;2022-07-24T05:28:16;18.10;99.90
13409;DHT22;6775;49.574;11.170;2022-07-24T05:30:44;18.20;99.90
13409;DHT22;6775;49.574;11.170;2022-07-24T05:33:12;18.30;99.90
13409;DHT22;6775;49.574;11.170;2022-07-24T05:35:40;18.50;99.90
13409;DHT22;6775;49.574;11.170;2022-07-24T05:38:14;18.60;99.90
13409;DHT22;6775;49.574;11.170;2022-07-24T05:40:43;18.80;99.90
13409;DHT22;6775;49.574;11.170;2022-07-24T05:43:11;18.80;99.90
13409;DHT22;6775;49.574;11.170;2022-07-24T05:45:39;19.00;99.90
13409;DHT22;6775;49.574;11.170;2022-07-24T05:48:07;19.10;99.90
13409;DHT22;6775;49.574;11.170;2022-07-24T05:50:35;19.20;99.90
13409;DHT22;6775;49.574;11.170;2022-07-24T05:53:03;19.30;99.90
13409;DHT22;6775;49.574;11.170;2022-07-24T05:55:31;19.30;99.90
13409;DHT22;6775;49.574;11.170;2022-07-24T05:58:00;19.40;99.90
13409;DHT22;6775;49.574;11.170;2022-07-24T06:00:29;19.50;99.90
13409;DHT22;6775;49.574;11.170;2022-07-24T06:02:57;19.50;99.90
13409;DHT22;6775;49.574;11.170;2022-07-24T06:05:25;19.60;99.90
13409;DHT22;6775;49.574;11.170;2022-07-24T06:07:53;19.70;99.90
13409;DHT22;6775;49.574;11.170;2022-07-24T06:10:21;19.80;99.90
13409;DHT22;6775;49.574;11.170;2022-07-24T06:12:52;19.80;99.90
13409;DHT22;6775;49.574;11.170;2022-07-24T06:15:21;19.90;99.90
13409;DHT22;6775;49.574;11.170;2022-07-24T06:17:49;20.00;99.90
13409;DHT22;6775;49.574;11.170;2022-07-24T06:20:17;20.10;99.90
13409;DHT22;6775;49.574;11.170;2022-07-24T06:22:45;20.20;99.90
13409;DHT22;6775;49.574;11.170;2022-07-24T06:25:16;20.30;99.90
13409;DHT22;6775;49.574;11.170;2022-07-24T06:27:46;20.40;99.90
13409;DHT22;6775;49.574;11.170;2022-07-24T06:30:16;20.40;99.90
13409;DHT22;6775;49.574;11.170;2022-07-24T06:32:46;20.60;99.90
13409;DHT22;6775;49.574;11.170;2022-07-24T06:35:14;20.70;99.90
13409;DHT22;6775;49.574;11.170;2022-07-24T06:37:42;20.80;99.90
13409;DHT22;6775;49.574;11.170;2022-07-24T06:40:14;21.00;99.90
13409;DHT22;6775;49.574;11.170;2022-07-24T06:42:42;21.00;99.90
13409;DHT22;6775;49.574;11.170;2022-07-24T06:45:11;21.20;99.90
13409;DHT22;6775;49.574;11.170;2022-07-24T06:47:40;21.30;99.90
13409;DHT22;6775;49.574;11.170;2022-07-24T06:50:10;21.40;99.90
13409;DHT22;6775;49.574;11.170;2022-07-24T06:52:39;21.60;99.90
13409;DHT22;6775;49.574;11.170;2022-07-24T06:55:07;21.60;99.90
13409;DHT22;6775;49.574;11.170;2022-07-24T06:57:35;21.80;99.90
13409;DHT22;6775;49.574;11.170;2022-07-24T07:00:06;21.90;99.90
13409;DHT22;6775;49.574;11.170;2022-07-24T07:02:34;22.10;99.90
13409;DHT22;6775;49.574;11.170;2022-07-24T07:05:03;22.20;99.90
13409;DHT22;6775;49.574;11.170;2022-07-24T07:07:34;22.30;99.90
13409;DHT22;6775;49.574;11.170;2022-07-24T07:10:02;22.40;99.90
13409;DHT22;6775;49.574;11.170;2022-07-24T07:12:30;22.50;99.90
13409;DHT22;6775;49.574;11.170;2022-07-24T07:15:06;22.60;99.90
13409;DHT22;6775;49.574;11.170;2022-07-24T07:17:37;22.80;99.90
13409;DHT22;6775;49.574;11.170;2022-07-24T07:20:06;22.90;99.90
13409;DHT22;6775;49.574;11.170;2022-07-24T07:22:36;23.00;99.90
13409;DHT22;6775;49.574;11.170;2022-07-24T07:25:05;23.20;99.90
13409;DHT22;6775;49.574;11.170;2022-07-24T07:27:34;23.30;99.90
13409;DHT22;6775;49.574;11.170;2022-07-24T07:30:03;23.40;99.90
13409;DHT22;6775;49.574;11.170;2022-07-24T07:32:32;23.50;99.90
13409;DHT22;6775;49.574;11.170;2022-07-24T07:35:00;23.60;99.90
13409;DHT22;6775;49.574;11.170;2022-07-24T07:37:31;23.70;99.90
13409;DHT22;6775;49.574;11.170;2022-07-24T07:40:00;23.80;99.90
13409;DHT22;6775;49.574;11.170;2022-07-24T07:42:28;23.80;99.90
13409;DHT22;6775;49.574;11.170;2022-07-24T07:44:56;23.80;99.90
13409;DHT22;6775;49.574;11.170;2022-07-24T07:47:24;23.80;99.90
13409;DHT22;6775;49.574;11.170;2022-07-24T07:49:52;23.70;99.90
13409;DHT22;6775;49.574;11.170;2022-07-24T07:52:20;23.90;99.90
13409;DHT22;6775;49.574;11.170;2022-07-24T07:54:48;24.00;99.90
13409;DHT22;6775;49.574;11.170;2022-07-24T07:57:18;24.10;99.90
13409;DHT22;6775;49.574;11.170;2022-07-24T07:59:46;24.30;99.90
13409;DHT22;6775;49.574;11.170;2022-07-24T08:02:15;24.40;99.90
13409;DHT22;6775;49.574;11.170;2022-07-24T08:04:43;24.50;99.90
13409;DHT22;6775;49.574;11.170;2022-07-24T08:07:11;24.70;99.90
13409;DHT22;6775;49.574;11.170;2022-07-24T08:09:39;24.80;99.90
13409;DHT22;6775;49.574;11.170;2022-07-24T08:12:10;24.90;99.90
13409;DHT22;6775;49.574;11.170;2022-07-24T08:14:43;24.90;99.90
13409;DHT22;6775;49.574;11.170;2022-07-24T08:17:11;25.00;99.90
13409;DHT22;6775;49.574;11.170;2022-07-24T08:19:40;25.10;99.90
13409;DHT22;6775;49.574;11.170;2022-07-24T08:22:08;25.30;99.90
13409;DHT22;6775;49.574;11.170;2022-07-24T08:24:36;25.40;99.90
13409;DHT22;6775;49.574;11.170;2022-07-24T08:27:05;25.50;99.90
13409;DHT22;6775;49.574;11.170;2022-07-24T08:29:33;25.60;99.90
13409;DHT22;6775;49.574;11.170;2022-07-24T08:32:02;25.70;99.90
13409;DHT22;6775;49.574;11.170;2022-07-24T08:34:31;25.80;99.90
13409;DHT22;6775;49.574;11.170;2022-07-24T08:36:58;25.90;99.90
13409;DHT22;6775;49.574;11.170;2022-07-24T08:39:26;26.00;99.90
13409;DHT22;6775;49.574;11.170;2022-07-24T08:41:54;26.10;99.90
13409;DHT22;6775;49.574;11.170;2022-07-24T08:44:23;26.20;99.90
13409;DHT22;6775;49.574;11.170;2022-07-24T08:46:53;26.30;99.90
13409;DHT22;6775;49.574;11.170;2022-07-24T08:49:23;26.40;99.90
13409;DHT22;6775;49.574;11.170;2022-07-24T08:51:53;26.40;99.60
13409;DHT22;6775;49.574;11.170;2022-07-24T08:54:24;26.40;99.90
13409;DHT22;6775;49.574;11.170;2022-07-24T08:56:52;26.50;98.90
13409;DHT22;6775;49.574;11.170;2022-07-24T08:59:21;26.50;99.10
13409;DHT22;6775;49.574;11.170;2022-07-24T09:01:53;26.60;98.90
13409;DHT22;6775;49.574;11.170;2022-07-24T09:04:38;26.70;98.50
13409;DHT22;6775;49.574;11.170;2022-07-24T09:07:09;26.80;98.30
13409;DHT22;6775;49.574;11.170;2022-07-24T09:09:38;27.00;98.40
13409;DHT22;6775;49.574;11.170;2022-07-24T09:12:08;27.10;97.80
13409;DHT22;6775;49.574;11.170;2022-07-24T09:14:38;27.30;96.20
13409;DHT22;6775;49.574;11.170;2022-07-24T09:17:08;27.30;95.60
13409;DHT22;6775;49.574;11.170;2022-07-24T09:19:51;27.40;95.70
13409;DHT22;6775;49.574;11.170;2022-07-24T09:22:31;27.50;95.20
13409;DHT22;6775;49.574;11.170;2022-07-24T09:25:05;27.50;95.30
13409;DHT22;6775;49.574;11.170;2022-07-24T09:27:33;27.60;95.30
13409;DHT22;6775;49.574;11.170;2022-07-24T09:30:02;27.70;94.40
13409;DHT22;6775;49.574;11.170;2022-07-24T09:32:38;27.70;94.70
13409;DHT22;6775;49.574;11.170;2022-07-24T09:35:09;27.80;95.00
13409;DHT22;6775;49.574;11.170;2022-07-24T09:37:37;27.90;94.40
13409;DHT22;6775;49.574;11.170;2022-07-24T09:40:07;27.90;94.10
13409;DHT22;6775;49.574;11.170;2022-07-24T09:42:36;28.00;94.20
13409;DHT22;6775;49.574;11.170;2022-07-24T09:45:07;28.10;93.80
13409;DHT22;6775;49.574;11.170;2022-07-24T09:47:39;28.20;93.80
13409;DHT22;6775;49.574;11.170;2022-07-24T09:50:14;28.40;93.90
13409;DHT22;6775;49.574;11.170;2022-07-24T09:52:43;28.60;93.50
13409;DHT22;6775;49.574;11.170;2022-07-24T09:55:23;28.70;93.10
13409;DHT22;6775;49.574;11.170;2022-07-24T09:57:51;28.70;92.50
13409;DHT22;6775;49.574;11.170;2022-07-24T10:00:20;28.70;91.50
13409;DHT22;6775;49.574;11.170;2022-07-24T10:02:48;28.40;90.80
13409;DHT22;6775;49.574;11.170;2022-07-24T10:05:21;28.20;91.40
13409;DHT22;6775;49.574;11.170;2022-07-24T10:07:55;28.20;92.20
13409;DHT22;6775;49.574;11.170;2022-07-24T10:10:26;28.20;92.50
13409;DHT22;6775;49.574;11.170;2022-07-24T10:12:55;28.30;92.70
13409;DHT22;6775;49.574;11.170;2022-07-24T10:15:28;28.30;92.30
13409;DHT22;6775;49.574;11.170;2022-07-24T10:18:14;28.20;92.70
13409;DHT22;6775;49.574;11.170;2022-07-24T10:20:45;28.10;92.60
13409;DHT22;6775;49.574;11.170;2022-07-24T10:23:31;28.00;92.40
13409;DHT22;6775;49.574;11.170;2022-07-24T10:26:07;27.80;92.50
13409;DHT22;6775;49.574;11.170;2022-07-24T10:28:38;27.90;92.60
13409;DHT22;6775;49.574;11.170;2022-07-24T10:31:08;27.90;92.70
13409;DHT22;6775;49.574;11.170;2022-07-24T10:33:38;28.10;91.80
13409;DHT22;6775;49.574;11.170;2022-07-24T10:36:16;28.20;91.50
13409;DHT22;6775;49.574;11.170;2022-07-24T10:38:56;28.30;91.60
13409;DHT22;6775;49.574;11.170;2022-07-24T10:41:25;28.40;91.70
13409;DHT22;6775;49.574;11.170;2022-07-24T10:44:12;28.60;91.20
13409;DHT22;6775;49.574;11.170;2022-07-24T10:46:59;28.70;90.80
13409;DHT22;6775;49.574;11.170;2022-07-24T10:49:45;29.00;90.20
13409;DHT22;6775;49.574;11.170;2022-07-24T10:52:26;29.10;85.20
13409;DHT22;6775;49.574;11.170;2022-07-24T10:55:23;29.00;85.60
13409;DHT22;6775;49.574;11.170;2022-07-24T10:58:11;29.00;87.10
13409;DHT22;6775;49.574;11.170;2022-07-24T11:00:43;28.90;86.60
13409;DHT22;6775;49.574;11.170;2022-07-24T11:03:19;28.80;86.30
13409;DHT22;6775;49.574;11.170;2022-07-24T11:06:03;28.80;86.20
13409;DHT22;6775;49.574;11.170;2022-07-24T11:08:37;28.90;86.20
13409;DHT22;6775;49.574;11.170;2022-07-24T11:11:13;28.90;86.90
13409;DHT22;6775;49.574;11.170;2022-07-24T11:13:42;29.10;86.50
13409;DHT22;6775;49.574;11.170;2022-07-24T11:16:21;29.30;84.60
13409;DHT22;6775;49.574;11.170;2022-07-24T11:19:27;29.40;81.90
13409;DHT22;6775;49.574;11.170;2022-07-24T11:22:07;29.30;80.50
13409;DHT22;6775;49.574;11.170;2022-07-24T11:25:11;29.30;82.50
13409;DHT22;6775;49.574;11.170;2022-07-24T11:27:50;29.50;83.90
13409;DHT22;6775;49.574;11.170;2022-07-24T11:30:20;29.80;81.20
13409;DHT22;6775;49.574;11.170;2022-07-24T11:32:48;30.10;80.20
13409;DHT22;6775;49.574;11.170;2022-07-24T11:35:16;30.20;79.40
13409;DHT22;6775;49.574;11.170;2022-07-24T11:37:44;30.40;78.70
13409;DHT22;6775;49.574;11.170;2022-07-24T11:40:17;30.50;77.50
13409;DHT22;6775;49.574;11.170;2022-07-24T11:42:54;30.60;74.70
13409;DHT22;6775;49.574;11.170;2022-07-24T11:45:23;30.70;75.20
13409;DHT22;6775;49.574;11.170;2022-07-24T11:47:51;30.50;72.10
13409;DHT22;6775;49.574;11.170;2022-07-24T11:50:22;30.40;73.70
13409;DHT22;6775;49.574;11.170;2022-07-24T11:52:52;30.20;73.90
13409;DHT22;6775;49.574;11.170;2022-07-24T11:55:22;30.00;74.70
13409;DHT22;6775;49.574;11.170;2022-07-24T11:57:52;29.90;74.80
13409;DHT22;6775;49.574;11.170;2022-07-24T12:00:40;29.90;75.30
13409;DHT22;6775;49.574;11.170;2022-07-24T12:03:09;30.00;75.10
13409;DHT22;6775;49.574;11.170;2022-07-24T12:05:38;30.20;75.00
13409;DHT22;6775;49.574;11.170;2022-07-24T12:08:17;30.30;74.30
13409;DHT22;6775;49.574;11.170;2022-07-24T12:10:47;30.50;73.80
13409;DHT22;6775;49.574;11.170;2022-07-24T12:13:16;30.60;72.90
13409;DHT22;6775;49.574;11.170;2022-07-24T12:15:44;30.80;73.40
13409;DHT22;6775;49.574;11.170;2022-07-24T12:18:12;30.90;71.90
13409;DHT22;6775;49.574;11.170;2022-07-24T12:20:41;31.00;71.80
13409;DHT22;6775;49.574;11.170;2022-07-24T12:23:11;31.10;71.60
13409;DHT22;6775;49.574;11.170;2022-07-24T12:25:40;31.30;70.70
13409;DHT22;6775;49.574;11.170;2022-07-24T12:28:11;31.30;69.50
13409;DHT22;6775;49.574;11.170;2022-07-24T12:30:41;31.40;70.20
13409;DHT22;6775;49.574;11.170;2022-07-24T12:33:19;31.40;68.00
13409;DHT22;6775;49.574;11.170;2022-07-24T12:35:55;31.40;67.70
13409;DHT22;6775;49.574;11.170;2022-07-24T12:38:25;31.40;68.00
13409;DHT22;6775;49.574;11.170;2022-07-24T12:41:02;31.40;68.80
13409;DHT22;6775;49.574;11.170;2022-07-24T12:43:32;31.50;68.10
13409;DHT22;6775;49.574;11.170;2022-07-24T12:46:07;31.60;67.30
13409;DHT22;6775;49.574;11.170;2022-07-24T12:48:36;31.60;68.00
13409;DHT22;6775;49.574;11.170;2022-07-24T12:51:07;31.50;68.10
13409;DHT22;6775;49.574;11.170;2022-07-24T12:53:38;31.50;67.30
13409;DHT22;6775;49.574;11.170;2022-07-24T12:56:09;31.50;67.10
13409;DHT22;6775;49.574;11.170;2022-07-24T12:58:56;31.40;67.40
13409;DHT22;6775;49.574;11.170;2022-07-24T13:01:26;31.30;68.00
13409;DHT22;6775;49.574;11.170;2022-07-24T13:03:59;31.20;68.10
13409;DHT22;6775;49.574;11.170;2022-07-24T13:06:36;31.10;67.60
13409;DHT22;6775;49.574;11.170;2022-07-24T13:09:05;31.00;67.70
13409;DHT22;6775;49.574;11.170;2022-07-24T13:11:35;31.10;68.40
13409;DHT22;6775;49.574;11.170;2022-07-24T13:14:05;31.10;68.00
13409;DHT22;6775;49.574;11.170;2022-07-24T13:16:35;31.30;68.40
13409;DHT22;6775;49.574;11.170;2022-07-24T13:19:04;31.40;67.80
13409;DHT22;6775;49.574;11.170;2022-07-24T13:21:33;31.60;67.30
13409;DHT22;6775;49.574;11.170;2022-07-24T13:24:01;31.60;66.30
13409;DHT22;6775;49.574;11.170;2022-07-24T13:26:29;31.60;66.60
13409;DHT22;6775;49.574;11.170;2022-07-24T13:28:57;31.70;67.00
13409;DHT22;6775;49.574;11.170;2022-07-24T13:31:27;31.70;66.40
13409;DHT22;6775;49.574;11.170;2022-07-24T13:33:55;31.70;65.80
13409;DHT22;6775;49.574;11.170;2022-07-24T13:36:23;31.60;65.90
13409;DHT22;6775;49.574;11.170;2022-07-24T13:38:51;31.40;64.60
13409;DHT22;6775;49.574;11.170;2022-07-24T13:41:19;31.20;65.20
13409;DHT22;6775;49.574;11.170;2022-07-24T13:43:48;31.20;65.00
13409;DHT22;6775;49.574;11.170;2022-07-24T13:46:17;31.20;65.40
13409;DHT22;6775;49.574;11.170;2022-07-24T13:48:49;31.20;66.30
13409;DHT22;6775;49.574;11.170;2022-07-24T13:51:24;31.20;66.70
13409;DHT22;6775;49.574;11.170;2022-07-24T13:53:52;31.40;66.60
13409;DHT22;6775;49.574;11.170;2022-07-24T13:56:20;31.40;66.00
13409;DHT22;6775;49.574;11.170;2022-07-24T13:58:49;31.40;65.80
13409;DHT22;6775;49.574;11.170;2022-07-24T14:01:17;31.40;66.20
13409;DHT22;6775;49.574;11.170;2022-07-24T14:03:59;31.50;66.70
13409;DHT22;6775;49.574;11.170;2022-07-24T14:06:47;31.50;64.40
13409;DHT22;6775;49.574;11.170;2022-07-24T14:09:15;31.60;64.80
13409;DHT22;6775;49.574;11.170;2022-07-24T14:11:43;31.40;64.80
13409;DHT22;6775;49.574;11.170;2022-07-24T14:14:12;31.20;65.70
13409;DHT22;6775;49.574;11.170;2022-07-24T14:16:40;31.00;64.70
13409;DHT22;6775;49.574;11.170;2022-07-24T14:19:10;30.90;65.00
13409;DHT22;6775;49.574;11.170;2022-07-24T14:21:38;30.70;65.40
13409;DHT22;6775;49.574;11.170;2022-07-24T14:24:06;30.60;66.00
13409;DHT22;6775;49.574;11.170;2022-07-24T14:26:41;30.60;67.10
13409;DHT22;6775;49.574;11.170;2022-07-24T14:29:09;30.80;66.80
13409;DHT22;6775;49.574;11.170;2022-07-24T14:31:37;31.00;66.60
13409;DHT22;6775;49.574;11.170;2022-07-24T14:34:05;31.20;66.10
13409;DHT22;6775;49.574;11.170;2022-07-24T14:36:36;31.30;64.90
13409;DHT22;6775;49.574;11.170;2022-07-24T14:39:04;31.30;65.00
13409;DHT22;6775;49.574;11.170;2022-07-24T14:41:32;31.40;64.20
13409;DHT22;6775;49.574;11.170;2022-07-24T14:44:01;31.40;64.20
13409;DHT22;6775;49.574;11.170;2022-07-24T14:46:35;31.40;63.90
13409;DHT22;6775;49.574;11.170;2022-07-24T14:49:04;31.40;64.60
13409;DHT22;6775;49.574;11.170;2022-07-24T14:51:32;31.40;63.60
13409;DHT22;6775;49.574;11.170;2022-07-24T14:54:01;31.20;64.40
13409;DHT22;6775;49.574;11.170;2022-07-24T14:56:30;31.00;64.50
13409;DHT22;6775;49.574;11.170;2022-07-24T14:58:57;30.90;65.10
13409;DHT22;6775;49.574;11.170;2022-07-24T15:01:25;30.90;65.40
13409;DHT22;6775;49.574;11.170;2022-07-24T15:03:54;30.80;66.00
13409;DHT22;6775;49.574;11.170;2022-07-24T15:06:22;30.90;66.30
13409;DHT22;6775;49.574;11.170;2022-07-24T15:08:50;31.00;65.30
13409;DHT22;6775;49.574;11.170;2022-07-24T15:11:19;31.10;65.20
13409;DHT22;6775;49.574;11.170;2022-07-24T15:13:48;31.00;64.70
13409;DHT22;6775;49.574;11.170;2022-07-24T15:16:16;31.00;64.90
13409;DHT22;6775;49.574;11.170;2022-07-24T15:18:44;31.00;65.00
13409;DHT22;6775;49.574;11.170;2022-07-24T15:21:12;31.00;65.00
13409;DHT22;6775;49.574;11.170;2022-07-24T15:23:40;31.00;65.40
13409;DHT22;6775;49.574;11.170;2022-07-24T15:26:08;31.10;65.20
13409;DHT22;6775;49.574;11.170;2022-07-24T15:28:38;31.10;65.10
13409;DHT22;6775;49.574;11.170;2022-07-24T15:31:06;31.10;64.90
13409;DHT22;6775;49.574;11.170;2022-07-24T15:33:35;31.10;63.90
13409;DHT22;6775;49.574;11.170;2022-07-24T15:36:04;31.00;64.20
13409;DHT22;6775;49.574;11.170;2022-07-24T15:38:32;31.00;64.60
13409;DHT22;6775;49.574;11.170;2022-07-24T15:41:00;31.00;64.30
13409;DHT22;6775;49.574;11.170;2022-07-24T15:43:28;30.90;63.70
13409;DHT22;6775;49.574;11.170;2022-07-24T15:45:57;30.90;63.90
13409;DHT22;6775;49.574;11.170;2022-07-24T15:48:25;30.90;63.90